Time;durP1;ratioP1;P1;durP2;ratioP2;P2;SDS_P1;SDS_P2;PMS_P1;PMS_P2;Temp;Humidity;BMP_temperature;BMP_pressure;BME280_temperature;BME280_humidity;BME280_pressure;Samples;Min_cycle;Max_cycle;Signal;HPM_P1;HPM_P2
2022/05/25 00:00:13;;;;;;;0.70;0.70;;;15.50;57.50;;;;;;4941953;28;20051;-44
2022/05/25 00:02:41;;;;;;;3.47;1.27;;;15.40;57.40;;;;;;4943754;28;20055;-45
2022/05/25 00:05:11;;;;;;;3.25;1.60;;;15.40;57.30;;;;;;4947175;28;20055;-44
2022/05/25 00:07:38;;;;;;;3.75;1.60;;;15.40;57.30;;;;;;4945467;28;20058;-46
2022/05/25 00:10:07;;;;;;;4.38;1.20;;;15.40;57.30;;;;;;4947424;28;20066;-48
2022/05/25 00:12:34;;;;;;;2.10;1.10;;;15.30;57.30;;;;;;4946804;28;20059;-44
2022/05/25 00:15:04;;;;;;;7.88;3.20;;;15.40;57.40;;;;;;4946910;28;20063;-49
2022/05/25 00:17:32;;;;;;;10.95;3.60;;;15.30;57.30;;;;;;4943394;28;20144;-44
2022/05/25 00:19:59;;;;;;;7.95;3.22;;;15.30;57.20;;;;;;4946717;28;20570;-44
2022/05/25 00:22:27;;;;;;;12.07;4.63;;;15.30;57.20;;;;;;4947382;28;20443;-44
2022/05/25 00:24:57;;;;;;;6.45;3.00;;;15.30;57.20;;;;;;4945493;28;20061;-44
2022/05/25 00:27:24;;;;;;;4.70;2.28;;;15.20;57.30;;;;;;4944321;28;20048;-44
2022/05/25 00:29:52;;;;;;;2.83;1.45;;;15.20;57.40;;;;;;4947768;28;20055;-44
2022/05/25 00:32:22;;;;;;;1.00;0.90;;;15.20;57.60;;;;;;4945283;28;20423;-44
2022/05/25 00:34:49;;;;;;;3.33;1.33;;;15.20;57.70;;;;;;4945578;28;20066;-44
2022/05/25 00:37:17;;;;;;;3.42;1.55;;;15.20;57.70;;;;;;4944683;28;21600;-45
2022/05/25 00:39:44;;;;;;;4.28;1.80;;;15.20;57.70;;;;;;4947129;29;20055;-45
2022/05/25 00:42:12;;;;;;;1.75;1.35;;;15.20;57.60;;;;;;4945863;28;20512;-45
2022/05/25 00:44:39;;;;;;;1.63;0.93;;;15.20;57.70;;;;;;4946852;28;20526;-44
2022/05/25 00:47:08;;;;;;;1.05;0.88;;;15.20;57.70;;;;;;4943804;28;20062;-44
2022/05/25 00:49:38;;;;;;;1.13;0.73;;;15.10;57.80;;;;;;4945551;28;20062;-44
2022/05/25 00:52:08;;;;;;;1.90;1.00;;;15.10;58.00;;;;;;4945401;28;20622;-44
2022/05/25 00:54:40;;;;;;;2.40;1.00;;;15.20;58.00;;;;;;4943453;29;20060;-44
2022/05/25 00:57:12;;;;;;;1.88;0.80;;;15.10;58.20;;;;;;4945448;28;20051;-45
2022/05/25 00:59:54;;;;;;;4.07;0.80;;;15.10;58.20;;;;;;4945042;29;20051;-44
2022/05/25 01:02:22;;;;;;;3.25;1.00;;;15.10;58.20;;;;;;4942987;29;20055;-44
2022/05/25 01:04:51;;;;;;;2.10;1.00;;;15.10;58.10;;;;;;4945278;28;20062;-51
2022/05/25 01:07:44;;;;;;;1.35;1.00;;;15.10;58.10;;;;;;4943999;28;20050;-45
2022/05/25 01:10:24;;;;;;;4.22;0.82;;;15.10;58.30;;;;;;4945206;28;20495;-44
2022/05/25 01:13:08;;;;;;;1.80;0.90;;;15.10;58.20;;;;;;4945950;28;20055;-44
2022/05/25 01:15:50;;;;;;;1.25;1.00;;;15.10;58.20;;;;;;4942987;28;20051;-45
2022/05/25 01:18:26;;;;;;;5.22;0.98;;;15.10;58.20;;;;;;4940828;28;20055;-45
2022/05/25 01:20:58;;;;;;;1.67;1.00;;;15.10;58.20;;;;;;4939930;28;20077;-44
2022/05/25 01:24:04;;;;;;;2.00;1.00;;;15.10;58.20;;;;;;4946456;29;20061;-44
2022/05/25 01:27:08;;;;;;;3.10;1.17;;;15.00;58.30;;;;;;4944108;28;20051;-44
2022/05/25 01:30:00;;;;;;;1.63;0.82;;;15.00;58.10;;;;;;4944860;28;20059;-44
2022/05/25 01:32:35;;;;;;;0.80;0.60;;;15.00;58.10;;;;;;4945689;29;20055;-44
2022/05/25 01:35:13;;;;;;;3.72;0.85;;;15.00;58.10;;;;;;4940396;28;20500;-44
2022/05/25 01:37:47;;;;;;;5.15;1.23;;;15.00;58.10;;;;;;4942544;28;20055;-47
2022/05/25 01:40:21;;;;;;;3.85;1.52;;;14.90;58.10;;;;;;4940503;28;20047;-44
2022/05/25 01:42:53;;;;;;;5.28;1.20;;;14.90;58.10;;;;;;4945077;28;20066;-44
2022/05/25 01:45:24;;;;;;;35.47;11.15;;;14.90;58.10;;;;;;4938782;28;20495;-45
2022/05/25 01:47:54;;;;;;;142.10;39.90;;;14.90;58.10;;;;;;4944289;28;20047;-44
2022/05/25 01:50:25;;;;;;;314.30;75.85;;;14.90;58.10;;;;;;4944647;29;20065;-44
2022/05/25 01:52:56;;;;;;;341.50;83.00;;;14.80;58.00;;;;;;4945117;28;20062;-45
2022/05/25 01:55:27;;;;;;;361.80;90.90;;;14.90;58.10;;;;;;4943909;28;20059;-45
2022/05/25 01:57:59;;;;;;;333.38;78.13;;;14.90;57.90;;;;;;4943904;28;20055;-45
2022/05/25 02:00:32;;;;;;;123.40;33.17;;;14.90;57.90;;;;;;4943906;28;20063;-47
2022/05/25 02:05:54;;;;;;;17.73;5.03;;;14.80;57.80;;;;;;4944004;29;20084;-46
2022/05/25 02:08:31;;;;;;;11.32;3.03;;;14.80;57.70;;;;;;4942802;28;20051;-46
2022/05/25 02:11:09;;;;;;;3.60;1.40;;;14.70;57.70;;;;;;4945043;28;20059;-44
2022/05/25 02:13:51;;;;;;;2.25;0.90;;;14.70;57.60;;;;;;4942444;28;20055;-45
2022/05/25 02:16:31;;;;;;;2.38;1.00;;;14.70;57.60;;;;;;4943465;28;20066;-46
2022/05/25 02:19:07;;;;;;;2.00;1.10;;;14.70;57.50;;;;;;4941909;28;20058;-46
2022/05/25 02:21:44;;;;;;;3.40;1.38;;;14.70;57.50;;;;;;4942789;29;20051;-44
2022/05/25 02:24:18;;;;;;;3.45;1.20;;;14.70;57.50;;;;;;4944114;28;20059;-45
2022/05/25 02:26:51;;;;;;;5.38;1.20;;;14.60;57.40;;;;;;4945771;28;20063;-44
2022/05/25 02:29:23;;;;;;;66.72;22.75;;;14.60;57.40;;;;;;4942640;28;20055;-46
2022/05/25 02:32:37;;;;;;;60.80;23.52;;;14.60;57.40;;;;;;4947623;29;20078;-48
2022/05/25 02:35:09;;;;;;;13.45;6.28;;;14.60;57.50;;;;;;4942348;28;20058;-48
2022/05/25 02:37:37;;;;;;;11.38;3.17;;;14.60;57.30;;;;;;4942974;28;20051;-45
2022/05/25 02:40:08;;;;;;;68.65;25.42;;;14.60;57.30;;;;;;4943955;28;20062;-46
2022/05/25 02:42:39;;;;;;;73.00;26.92;;;14.60;57.40;;;;;;4943800;28;20063;-44
2022/05/25 02:45:12;;;;;;;21.77;9.40;;;14.60;57.40;;;;;;4940433;28;20181;-47
2022/05/25 02:47:40;;;;;;;11.52;3.38;;;14.60;57.40;;;;;;4942673;28;20051;-44
2022/05/25 02:50:09;;;;;;;5.43;2.80;;;14.60;57.40;;;;;;4938483;28;20055;-45
2022/05/25 02:52:37;;;;;;;6.50;1.60;;;14.50;57.30;;;;;;4940175;28;20074;-45
2022/05/25 02:55:06;;;;;;;3.35;0.95;;;14.50;57.30;;;;;;4938949;28;20051;-45
2022/05/25 02:57:33;;;;;;;2.47;1.15;;;14.50;57.30;;;;;;4941126;28;20048;-45
2022/05/25 03:00:04;;;;;;;3.22;0.93;;;14.50;57.40;;;;;;4940414;29;20058;-44
2022/05/25 03:02:31;;;;;;;2.42;0.93;;;14.50;57.40;;;;;;4943017;28;20653;-45
2022/05/25 03:04:58;;;;;;;2.17;1.10;;;14.50;57.50;;;;;;4938998;28;20059;-44
2022/05/25 03:07:27;;;;;;;4.63;1.85;;;14.50;57.50;;;;;;4940976;28;20092;-46
2022/05/25 03:09:55;;;;;;;4.72;1.90;;;14.40;57.40;;;;;;4936297;28;20058;-46
2022/05/25 03:12:22;;;;;;;3.75;1.90;;;14.40;57.50;;;;;;4941555;28;20419;-44
2022/05/25 03:14:50;;;;;;;3.25;1.45;;;14.40;57.50;;;;;;4941965;28;20055;-44
2022/05/25 03:17:17;;;;;;;2.55;1.00;;;14.40;57.60;;;;;;4941534;28;20051;-44
2022/05/25 03:19:52;;;;;;;4.07;1.55;;;14.40;57.70;;;;;;4939110;28;20059;-46
2022/05/25 03:22:20;;;;;;;3.00;1.55;;;14.40;57.80;;;;;;4943947;28;20419;-45
2022/05/25 03:24:49;;;;;;;4.90;1.70;;;14.40;57.80;;;;;;4941813;28;20054;-45
2022/05/25 03:27:17;;;;;;;2.72;1.85;;;14.40;57.80;;;;;;4942617;28;20556;-48
2022/05/25 03:29:44;;;;;;;5.45;1.63;;;14.40;57.80;;;;;;4942648;28;20055;-45
2022/05/25 03:32:13;;;;;;;5.13;1.73;;;14.40;57.80;;;;;;4942556;28;20527;-47
2022/05/25 03:34:40;;;;;;;2.72;1.42;;;14.40;57.80;;;;;;4940710;28;20063;-46
2022/05/25 03:37:08;;;;;;;3.28;1.27;;;14.40;57.70;;;;;;4943447;28;20504;-49
2022/05/25 03:39:36;;;;;;;2.45;1.40;;;14.50;57.70;;;;;;4948340;28;20720;-45
2022/05/25 03:42:15;;;;;;;2.08;1.08;;;14.50;57.70;;;;;;4948582;28;20051;-45
2022/05/25 03:44:43;;;;;;;2.63;1.00;;;14.50;57.70;;;;;;4949319;28;20062;-44
2022/05/25 03:47:10;;;;;;;2.63;1.08;;;14.50;57.60;;;;;;4947438;28;20062;-46
2022/05/25 03:49:38;;;;;;;4.47;1.42;;;14.50;57.50;;;;;;4948989;29;20051;-45
2022/05/25 03:52:05;;;;;;;5.53;0.98;;;14.50;57.50;;;;;;4949099;29;20054;-44
2022/05/25 03:54:33;;;;;;;3.08;1.60;;;14.50;57.50;;;;;;4950954;28;20419;-45
2022/05/25 03:57:01;;;;;;;2.63;1.38;;;14.50;57.50;;;;;;4943506;28;20059;-46
2022/05/25 03:59:30;;;;;;;2.85;1.50;;;14.50;57.40;;;;;;4946266;28;20055;-46
2022/05/25 04:01:58;;;;;;;4.07;1.20;;;14.50;57.40;;;;;;4948311;28;20073;-45
2022/05/25 04:04:25;;;;;;;3.13;1.10;;;14.50;57.40;;;;;;4947784;28;20062;-45
2022/05/25 04:06:52;;;;;;;3.10;1.42;;;14.50;57.30;;;;;;4948796;28;20055;-46
2022/05/25 04:09:20;;;;;;;2.45;1.13;;;14.50;57.30;;;;;;4948079;28;20431;-45
2022/05/25 04:11:48;;;;;;;4.03;1.25;;;14.60;57.30;;;;;;4947597;28;20492;-46
2022/05/25 04:14:16;;;;;;;1.88;1.17;;;14.60;57.30;;;;;;4948425;28;20054;-45
2022/05/25 04:16:46;;;;;;;2.65;1.38;;;14.50;57.30;;;;;;4943358;28;20066;-46
2022/05/25 04:19:13;;;;;;;1.60;1.05;;;14.60;57.30;;;;;;4940335;28;20092;-47
2022/05/25 04:21:41;;;;;;;2.00;1.38;;;14.60;57.20;;;;;;4942737;28;20056;-46
2022/05/25 04:24:09;;;;;;;2.45;1.23;;;14.50;57.20;;;;;;4946760;28;20051;-46
2022/05/25 04:26:37;;;;;;;2.85;1.35;;;14.50;57.20;;;;;;4947473;28;20507;-45
2022/05/25 04:29:04;;;;;;;2.60;1.23;;;14.50;57.20;;;;;;4945583;29;20062;-45
2022/05/25 04:31:32;;;;;;;3.28;1.30;;;14.50;57.20;;;;;;4946827;28;20059;-46
2022/05/25 04:34:00;;;;;;;4.78;1.30;;;14.60;57.20;;;;;;4944733;28;20542;-49
2022/05/25 04:36:28;;;;;;;4.80;1.17;;;14.50;57.20;;;;;;4949120;28;20070;-45
2022/05/25 04:38:56;;;;;;;2.38;1.50;;;14.60;57.30;;;;;;4944382;28;20047;-46
2022/05/25 04:41:23;;;;;;;4.45;1.67;;;14.50;57.30;;;;;;4946005;28;20066;-45
2022/05/25 04:43:51;;;;;;;5.10;1.65;;;14.50;57.30;;;;;;4947783;28;20070;-45
2022/05/25 04:46:18;;;;;;;3.72;1.70;;;14.50;57.30;;;;;;4948417;28;20503;-45
2022/05/25 04:48:46;;;;;;;5.53;1.98;;;14.60;57.40;;;;;;4943124;28;20051;-46
2022/05/25 04:51:16;;;;;;;7.78;3.30;;;14.60;57.90;;;;;;4946975;28;20059;-45
2022/05/25 04:53:43;;;;;;;5.20;1.95;;;14.60;57.40;;;;;;4945661;28;20062;-45
2022/05/25 04:58:55;;;;;;;4.32;1.83;;;14.60;57.40;;;;;;4950948;28;20054;-47
2022/05/25 05:01:23;;;;;;;5.43;2.10;;;14.60;57.40;;;;;;4945691;28;20047;-45
2022/05/25 05:03:50;;;;;;;4.22;1.80;;;14.60;57.40;;;;;;4941801;28;20051;-45
2022/05/25 05:06:19;;;;;;;4.03;2.30;;;14.70;57.50;;;;;;4943726;28;20066;-47
2022/05/25 05:08:47;;;;;;;3.85;1.55;;;14.70;57.40;;;;;;4945198;28;20522;-45
2022/05/25 05:11:16;;;;;;;7.13;2.30;;;14.70;57.30;;;;;;4944975;28;20055;-47
2022/05/25 05:13:44;;;;;;;4.90;1.80;;;14.80;57.40;;;;;;4938900;28;20055;-46
2022/05/25 05:16:15;;;;;;;3.72;1.45;;;14.80;57.40;;;;;;4944431;28;20062;-47
2022/05/25 05:18:43;;;;;;;2.65;1.50;;;14.80;57.40;;;;;;4940291;28;20055;-47
2022/05/25 05:21:10;;;;;;;3.35;1.48;;;14.80;57.30;;;;;;4944380;28;20063;-44
2022/05/25 05:23:41;;;;;;;3.88;1.60;;;14.90;57.30;;;;;;4942257;28;20055;-49
2022/05/25 05:26:09;;;;;;;2.58;1.23;;;14.90;57.40;;;;;;4944579;28;20487;-49
2022/05/25 05:28:39;;;;;;;7.18;1.73;;;14.90;57.30;;;;;;4939448;28;20055;-45
2022/05/25 05:31:07;;;;;;;2.45;1.15;;;15.00;57.40;;;;;;4945126;28;20496;-44
2022/05/25 05:33:35;;;;;;;6.00;1.42;;;15.00;57.30;;;;;;4946864;28;20082;-47
2022/05/25 05:36:08;;;;;;;2.22;1.25;;;15.10;57.40;;;;;;4940565;28;20062;-44
2022/05/25 05:38:44;;;;;;;4.88;1.92;;;15.10;57.30;;;;;;4941415;28;20055;-45
2022/05/25 05:41:13;;;;;;;3.22;1.60;;;15.10;57.20;;;;;;4940872;28;20514;-44
2022/05/25 05:43:41;;;;;;;2.65;1.50;;;15.20;57.20;;;;;;4945003;28;20062;-45
2022/05/25 05:46:09;;;;;;;4.15;1.30;;;15.20;57.10;;;;;;4943636;28;20061;-46
2022/05/25 05:48:38;;;;;;;2.97;1.38;;;15.20;57.30;;;;;;4941021;28;20055;-46
2022/05/25 05:51:06;;;;;;;3.05;1.50;;;15.30;57.30;;;;;;4943522;28;20058;-45
2022/05/25 05:53:35;;;;;;;3.45;1.70;;;15.30;57.70;;;;;;4936591;28;20058;-47
2022/05/25 05:56:06;;;;;;;6.10;1.65;;;15.40;57.20;;;;;;4941394;28;20503;-45
2022/05/25 05:58:34;;;;;;;5.28;1.60;;;15.40;57.20;;;;;;4936063;28;20066;-44
2022/05/25 06:01:02;;;;;;;4.93;1.70;;;15.40;57.10;;;;;;4936077;28;20043;-45
2022/05/25 06:03:30;;;;;;;5.57;1.55;;;15.50;57.10;;;;;;4943955;28;20050;-44
2022/05/25 06:05:57;;;;;;;3.22;1.55;;;15.60;57.10;;;;;;4943974;28;20051;-44
2022/05/25 06:08:26;;;;;;;2.72;1.50;;;15.60;57.00;;;;;;4944705;28;20055;-44
2022/05/25 06:10:56;;;;;;;6.22;1.80;;;15.60;57.10;;;;;;4941622;28;20047;-45
2022/05/25 06:13:24;;;;;;;5.20;1.50;;;15.70;57.10;;;;;;4941397;28;20043;-45
2022/05/25 06:21:26;;;;;;;5.70;1.40;;;15.90;56.80;;;;;;4945566;29;20571;-45
2022/05/25 06:23:53;;;;;;;3.47;1.25;;;15.90;56.50;;;;;;4935884;28;21164;-46
2022/05/25 06:26:23;;;;;;;3.15;1.20;;;16.00;56.50;;;;;;4931717;28;20055;-45
2022/05/25 06:28:52;;;;;;;5.00;1.40;;;16.10;56.30;;;;;;4934254;28;20063;-45
2022/05/25 06:31:19;;;;;;;5.15;1.60;;;16.10;56.20;;;;;;4943299;28;20055;-45
2022/05/25 06:33:47;;;;;;;2.30;1.00;;;16.10;56.10;;;;;;4942802;28;20056;-45
2022/05/25 06:36:16;;;;;;;4.07;1.40;;;16.20;56.10;;;;;;4944837;29;20538;-45
2022/05/25 06:38:44;;;;;;;1.83;1.00;;;16.20;56.00;;;;;;4945183;28;20082;-45
2022/05/25 06:41:11;;;;;;;4.75;1.40;;;16.30;55.90;;;;;;4944871;29;20054;-46
2022/05/25 06:43:39;;;;;;;3.00;1.17;;;16.30;55.60;;;;;;4944295;28;20063;-45
2022/05/25 06:46:09;;;;;;;3.55;1.10;;;16.30;55.30;;;;;;4945651;28;20415;-50
2022/05/25 06:48:37;;;;;;;2.90;1.27;;;16.30;55.10;;;;;;4944729;28;20522;-49
2022/05/25 06:51:10;;;;;;;5.88;1.40;;;16.30;54.80;;;;;;4934113;28;20047;-45
2022/05/25 06:53:38;;;;;;;5.87;1.50;;;16.40;54.80;;;;;;4941099;28;20059;-46
2022/05/25 06:56:06;;;;;;;7.32;1.45;;;16.40;55.10;;;;;;4939526;28;20123;-45
2022/05/25 06:58:35;;;;;;;3.25;1.42;;;16.50;55.10;;;;;;4945187;28;20400;-46
2022/05/25 07:01:02;;;;;;;1.77;0.98;;;16.50;55.20;;;;;;4935008;28;20047;-45
2022/05/25 07:03:32;;;;;;;4.18;1.20;;;16.50;55.30;;;;;;4932696;28;20051;-45
2022/05/25 07:06:02;;;;;;;3.58;1.05;;;16.60;54.90;;;;;;4927015;28;20062;-45
2022/05/25 07:08:30;;;;;;;4.93;1.05;;;16.50;54.60;;;;;;4935503;28;20063;-46
2022/05/25 07:10:58;;;;;;;2.55;0.95;;;16.50;55.00;;;;;;4937852;28;20400;-45
2022/05/25 07:13:26;;;;;;;3.55;1.17;;;16.60;55.00;;;;;;4940128;28;20062;-45
2022/05/25 07:15:56;;;;;;;3.55;0.80;;;16.60;54.50;;;;;;4934568;28;20415;-45
2022/05/25 07:18:24;;;;;;;1.48;0.70;;;16.60;54.30;;;;;;4936500;28;20415;-46
2022/05/25 07:20:53;;;;;;;3.22;0.80;;;16.60;54.50;;;;;;4924222;28;20066;-49
2022/05/25 07:23:20;;;;;;;2.83;0.70;;;16.70;54.50;;;;;;4928963;28;20066;-45
2022/05/25 07:25:48;;;;;;;1.05;0.55;;;16.70;54.10;;;;;;4924019;28;20061;-48
2022/05/25 07:28:15;;;;;;;4.22;0.68;;;16.70;53.80;;;;;;4926532;28;20084;-49
2022/05/25 07:30:43;;;;;;;1.58;0.65;;;16.70;53.40;;;;;;4943337;28;20051;-47
2022/05/25 07:33:10;;;;;;;2.35;0.70;;;16.70;53.00;;;;;;4944726;28;20066;-46
2022/05/25 07:35:39;;;;;;;3.50;0.60;;;16.70;52.60;;;;;;4941647;28;20055;-47
2022/05/25 07:38:08;;;;;;;1.90;0.70;;;16.80;52.60;;;;;;4929560;28;20055;-45
2022/05/25 07:40:40;;;;;;;1.55;0.65;;;16.80;52.90;;;;;;4942181;28;20075;-45
2022/05/25 07:43:12;;;;;;;2.70;0.55;;;16.90;53.20;;;;;;4944133;28;20078;-46
2022/05/25 07:45:40;;;;;;;2.58;0.50;;;16.90;52.80;;;;;;4943476;28;20503;-46
2022/05/25 07:48:08;;;;;;;3.35;0.73;;;17.00;52.50;;;;;;4932368;28;20421;-49
2022/05/25 07:50:36;;;;;;;1.58;0.50;;;17.00;52.50;;;;;;4933513;28;20051;-44
2022/05/25 07:53:55;;;;;;;0.82;0.43;;;17.00;51.30;;;;;;4937681;28;20059;-48
2022/05/25 07:55:54;;;;;;;1.70;0.65;;;17.10;51.30;;;;;;4942397;29;20211;-44
2022/05/25 07:58:22;;;;;;;2.55;0.40;;;17.10;51.00;;;;;;4942614;29;20062;-46
2022/05/25 08:00:52;;;;;;;2.20;0.43;;;17.10;51.00;;;;;;4944497;28;20428;-44
2022/05/25 08:06:01;;;;;;;2.97;0.65;;;17.20;51.00;;;;;;4921492;29;20400;-45
2022/05/25 08:08:29;;;;;;;0.85;0.40;;;17.20;50.50;;;;;;4944232;29;20063;-46
2022/05/25 08:11:00;;;;;;;5.40;0.90;;;17.20;50.80;;;;;;4944723;28;20055;-49
2022/05/25 08:13:30;;;;;;;2.80;0.50;;;17.30;51.10;;;;;;4942482;28;20066;-48
2022/05/25 08:15:57;;;;;;;2.35;0.50;;;17.40;51.70;;;;;;4940947;28;20066;-44
2022/05/25 08:18:25;;;;;;;1.02;0.50;;;17.40;50.70;;;;;;4939454;28;20070;-44
2022/05/25 08:20:52;;;;;;;1.02;0.50;;;17.40;50.90;;;;;;4936378;28;20051;-46
2022/05/25 08:23:20;;;;;;;1.65;0.70;;;17.50;50.80;;;;;;4933462;28;20106;-46
2022/05/25 08:25:48;;;;;;;1.60;0.55;;;17.50;50.30;;;;;;4943828;28;20051;-44
2022/05/25 08:28:17;;;;;;;2.70;0.68;;;17.60;50.10;;;;;;4943225;28;20055;-48
2022/05/25 08:30:45;;;;;;;1.40;0.40;;;17.60;50.00;;;;;;4940438;28;21470;-49
2022/05/25 08:33:17;;;;;;;1.63;0.45;;;17.70;49.80;;;;;;4945968;28;20055;-46
2022/05/25 08:35:45;;;;;;;2.13;0.50;;;17.70;49.20;;;;;;4943074;29;20447;-44
2022/05/25 08:38:13;;;;;;;1.77;0.43;;;17.70;49.20;;;;;;4942728;28;20067;-46
2022/05/25 08:40:42;;;;;;;1.95;0.47;;;17.80;49.40;;;;;;4946668;28;20510;-45
2022/05/25 08:43:18;;;;;;;1.70;0.90;;;17.80;49.20;;;;;;4945937;28;20065;-44
2022/05/25 08:45:51;;;;;;;1.08;0.43;;;17.90;49.10;;;;;;4944974;28;20058;-46
2022/05/25 08:48:21;;;;;;;2.47;1.17;;;17.90;48.70;;;;;;4930793;28;20058;-48
2022/05/25 08:50:53;;;;;;;1.95;0.55;;;17.90;48.70;;;;;;4928338;28;20066;-45
2022/05/25 08:53:24;;;;;;;1.55;0.63;;;18.00;49.30;;;;;;4940888;28;20067;-44
2022/05/25 08:56:01;;;;;;;3.22;0.68;;;18.00;49.40;;;;;;4946654;28;20055;-44
2022/05/25 08:58:39;;;;;;;0.70;0.40;;;18.10;49.30;;;;;;4942509;28;20549;-46
2022/05/25 09:01:10;;;;;;;1.73;0.52;;;18.10;48.90;;;;;;4937946;28;21517;-45
2022/05/25 09:03:48;;;;;;;2.25;0.35;;;18.10;48.80;;;;;;4938834;28;20074;-45
2022/05/25 09:06:25;;;;;;;5.05;0.38;;;18.20;48.50;;;;;;4937151;28;20059;-45
2022/05/25 09:08:59;;;;;;;8.50;4.10;;;18.30;48.60;;;;;;4935474;28;20050;-47
2022/05/25 09:11:34;;;;;;;3.35;2.10;;;18.30;48.60;;;;;;4945435;28;20415;-44
2022/05/25 09:14:06;;;;;;;1.65;0.93;;;18.40;48.40;;;;;;4938401;28;20059;-45
2022/05/25 09:16:37;;;;;;;1.02;0.60;;;18.50;48.30;;;;;;4936332;28;20062;-47
2022/05/25 09:19:08;;;;;;;1.77;0.20;;;18.50;47.90;;;;;;4941225;28;20058;-45
2022/05/25 09:21:40;;;;;;;0.60;0.30;;;18.60;47.90;;;;;;4938705;28;20047;-44
2022/05/25 09:24:12;;;;;;;0.50;0.30;;;18.70;47.90;;;;;;4940519;28;20051;-46
2022/05/25 09:26:40;;;;;;;2.42;0.60;;;18.70;48.40;;;;;;4933735;28;20081;-45
2022/05/25 09:29:10;;;;;;;0.63;0.30;;;18.70;48.50;;;;;;4934787;28;20051;-45
2022/05/25 09:31:44;;;;;;;1.30;0.22;;;18.80;47.90;;;;;;4939538;28;20047;-47
2022/05/25 09:34:22;;;;;;;0.35;0.30;;;18.90;47.80;;;;;;4938047;28;20066;-47
2022/05/25 09:36:55;;;;;;;0.52;0.22;;;18.90;46.80;;;;;;4942480;28;20074;-45
2022/05/25 09:39:25;;;;;;;1.25;0.30;;;19.00;46.50;;;;;;4934169;28;20070;-48
2022/05/25 09:41:58;;;;;;;0.57;0.28;;;19.00;45.90;;;;;;4940113;28;20051;-48
2022/05/25 09:44:26;;;;;;;2.70;0.30;;;19.10;46.20;;;;;;4935055;28;20067;-44
2022/05/25 09:46:59;;;;;;;6.45;0.20;;;19.10;46.40;;;;;;4935532;28;20055;-46
2022/05/25 09:49:30;;;;;;;1.40;0.32;;;19.10;46.10;;;;;;4934685;28;20415;-45
2022/05/25 09:52:03;;;;;;;1.23;0.32;;;19.20;46.10;;;;;;4932126;28;20055;-44
2022/05/25 09:54:34;;;;;;;0.95;0.47;;;19.20;46.10;;;;;;4937032;28;20448;-45
2022/05/25 09:57:06;;;;;;;0.65;0.20;;;19.20;46.00;;;;;;4928184;28;20070;-46
2022/05/25 09:59:37;;;;;;;4.88;0.77;;;19.30;45.80;;;;;;4936138;28;20515;-47
2022/05/25 10:02:25;;;;;;;0.82;0.30;;;19.30;45.90;;;;;;4929205;28;20492;-45
2022/05/25 10:04:55;;;;;;;0.57;0.38;;;19.30;45.50;;;;;;4938415;28;20066;-48
2022/05/25 10:07:30;;;;;;;1.80;0.40;;;19.40;45.90;;;;;;4936476;28;20059;-45
2022/05/25 10:10:01;;;;;;;1.13;0.30;;;19.40;46.10;;;;;;4928387;28;20063;-46
2022/05/25 10:12:32;;;;;;;1.50;0.30;;;19.50;46.00;;;;;;4929387;28;20047;-44
2022/05/25 10:15:02;;;;;;;2.38;0.40;;;19.60;45.60;;;;;;4932734;28;20058;-46
2022/05/25 10:17:37;;;;;;;0.77;0.20;;;19.60;45.30;;;;;;4932660;28;20051;-45
2022/05/25 10:20:20;;;;;;;2.72;0.25;;;19.70;44.90;;;;;;4940377;28;20062;-45
2022/05/25 10:22:50;;;;;;;0.63;0.32;;;19.70;44.80;;;;;;4945049;28;20055;-45
2022/05/25 10:25:27;;;;;;;0.60;0.20;;;19.80;45.80;;;;;;4941398;28;20055;-45
2022/05/25 10:27:56;;;;;;;1.70;0.30;;;19.90;44.80;;;;;;4938796;28;20327;-46
2022/05/25 10:39:24;;;;;;;2.13;0.47;;;20.10;43.70;;;;;;4940559;28;20407;-44
2022/05/25 10:42:00;;;;;;;2.42;0.30;;;20.20;43.20;;;;;;4941344;28;20062;-47
2022/05/25 10:44:33;;;;;;;0.40;0.30;;;20.30;42.80;;;;;;4943420;28;20067;-46
2022/05/25 10:47:01;;;;;;;2.17;0.38;;;20.30;43.20;;;;;;4937691;28;20603;-47
2022/05/25 10:49:35;;;;;;;1.77;0.20;;;20.30;42.90;;;;;;4937244;28;20078;-48
2022/05/25 10:52:08;;;;;;;0.50;0.20;;;20.40;42.60;;;;;;4943637;28;20062;-45
2022/05/25 10:54:52;;;;;;;0.88;0.25;;;20.40;42.40;;;;;;4941200;28;20066;-45
2022/05/25 10:57:58;;;;;;;1.85;0.30;;;20.40;41.90;;;;;;4942938;28;20055;-46
2022/05/25 11:00:36;;;;;;;0.60;0.30;;;20.40;41.10;;;;;;4934711;28;20515;-45
2022/05/25 11:03:38;;;;;;;1.73;0.40;;;20.40;41.30;;;;;;4942321;28;20535;-52
2022/05/25 11:06:31;;;;;;;0.45;0.22;;;20.50;42.40;;;;;;4944496;28;20075;-44
2022/05/25 11:09:12;;;;;;;0.32;0.20;;;20.50;40.80;;;;;;4935215;28;20507;-46
2022/05/25 11:11:50;;;;;;;0.55;0.30;;;20.50;41.10;;;;;;4936925;28;20066;-45
2022/05/25 11:14:42;;;;;;;1.33;0.20;;;20.50;41.30;;;;;;4941070;28;20062;-46
2022/05/25 11:17:33;;;;;;;3.03;0.28;;;20.50;41.60;;;;;;4939289;28;20062;-45
2022/05/25 11:20:18;;;;;;;0.98;0.32;;;20.60;42.10;;;;;;4940357;28;20508;-45
2022/05/25 11:23:04;;;;;;;0.95;0.63;;;20.70;41.90;;;;;;4940293;28;20060;-47
2022/05/25 11:25:42;;;;;;;1.35;0.50;;;20.70;41.20;;;;;;4940635;28;20491;-48
2022/05/25 11:28:22;;;;;;;1.60;0.30;;;20.80;41.30;;;;;;4939830;28;20139;-46
2022/05/25 11:31:05;;;;;;;1.08;0.38;;;20.80;41.40;;;;;;4940075;28;20510;-46
2022/05/25 11:33:51;;;;;;;0.85;0.30;;;20.90;41.20;;;;;;4942784;28;20047;-47
2022/05/25 11:36:29;;;;;;;3.03;0.40;;;21.00;40.90;;;;;;4942806;29;20047;-44
2022/05/25 11:39:08;;;;;;;0.77;0.40;;;21.10;40.60;;;;;;4938202;28;20066;-48
2022/05/25 11:41:43;;;;;;;1.50;0.30;;;21.10;39.90;;;;;;4941840;28;20234;-52
2022/05/25 11:44:46;;;;;;;1.40;0.30;;;21.10;40.60;;;;;;4941228;28;21096;-46
2022/05/25 11:47:26;;;;;;;1.70;0.30;;;21.20;39.70;;;;;;4932795;28;21458;-45
2022/05/25 11:50:08;;;;;;;0.98;0.20;;;21.40;39.80;;;;;;4941730;29;20415;-47
2022/05/25 11:53:06;;;;;;;1.38;0.50;;;21.40;39.60;;;;;;4943134;28;20066;-45
2022/05/25 11:55:43;;;;;;;2.95;0.57;;;21.50;39.20;;;;;;4943808;28;20051;-46
2022/05/25 11:58:21;;;;;;;1.05;0.47;;;21.50;38.70;;;;;;4938501;28;20062;-45
2022/05/25 12:00:58;;;;;;;3.22;0.63;;;21.50;37.90;;;;;;4944153;29;20492;-46
2022/05/25 12:03:46;;;;;;;2.83;0.70;;;21.60;39.20;;;;;;4944170;29;20058;-46
2022/05/25 12:06:27;;;;;;;3.03;0.68;;;21.60;40.30;;;;;;4945496;28;20063;-45
2022/05/25 12:09:09;;;;;;;2.40;0.60;;;21.60;37.40;;;;;;4945479;28;20545;-45
2022/05/25 12:11:43;;;;;;;1.65;0.82;;;21.70;38.70;;;;;;4945566;28;20062;-47
2022/05/25 12:14:34;;;;;;;3.47;1.00;;;21.70;38.00;;;;;;4945421;28;20059;-46
2022/05/25 12:17:12;;;;;;;4.97;1.08;;;21.70;37.60;;;;;;4942863;28;20063;-47
2022/05/25 12:19:43;;;;;;;2.38;0.65;;;21.70;37.60;;;;;;4945287;29;20051;-45
2022/05/25 12:22:14;;;;;;;2.20;0.90;;;21.70;38.60;;;;;;4945998;28;20058;-48
2022/05/25 12:24:44;;;;;;;3.55;0.73;;;21.70;38.50;;;;;;4946778;28;20055;-47
2022/05/25 12:27:20;;;;;;;2.40;1.00;;;21.70;36.90;;;;;;4941003;28;20055;-47
2022/05/25 12:29:50;;;;;;;3.92;0.93;;;21.60;36.60;;;;;;4943986;28;20058;-47
2022/05/25 12:32:18;;;;;;;2.88;1.02;;;21.60;36.80;;;;;;4946341;28;20059;-45
2022/05/25 12:34:50;;;;;;;3.13;0.73;;;21.70;37.20;;;;;;4941000;29;20055;-46
2022/05/25 12:37:38;;;;;;;3.20;0.60;;;21.70;37.70;;;;;;4942306;28;20055;-46
2022/05/25 12:40:08;;;;;;;1.67;0.50;;;21.70;37.10;;;;;;4944944;28;20058;-48
2022/05/25 12:42:40;;;;;;;2.70;0.40;;;21.70;37.20;;;;;;4947264;28;20051;-45
2022/05/25 12:50:52;;;;;;;3.33;0.60;;;21.60;37.10;;;;;;4948689;28;20058;-45
2022/05/25 12:53:25;;;;;;;0.82;0.40;;;21.70;37.90;;;;;;4943450;28;20066;-46
2022/05/25 12:55:56;;;;;;;1.40;0.47;;;21.70;37.10;;;;;;4945833;28;20415;-45
2022/05/25 12:58:43;;;;;;;2.25;0.60;;;21.70;37.00;;;;;;4942406;28;20055;-45
2022/05/25 13:01:31;;;;;;;2.50;0.70;;;21.70;36.80;;;;;;4944411;28;20055;-51
2022/05/25 13:04:21;;;;;;;6.05;0.50;;;21.80;36.00;;;;;;4943811;28;20051;-48
2022/05/25 13:07:19;;;;;;;1.38;0.40;;;21.90;37.00;;;;;;4945693;28;20407;-46
2022/05/25 13:09:48;;;;;;;0.80;0.20;;;21.90;37.40;;;;;;4943251;28;20498;-46
2022/05/25 13:12:43;;;;;;;1.48;0.50;;;22.00;36.80;;;;;;4944810;28;20447;-49
2022/05/25 13:15:41;;;;;;;2.28;0.52;;;22.10;36.90;;;;;;4941933;28;20066;-50
2022/05/25 13:18:09;;;;;;;0.90;0.40;;;22.10;37.50;;;;;;4944799;28;20538;-47
2022/05/25 13:21:07;;;;;;;1.15;0.30;;;22.10;36.60;;;;;;4944516;28;20062;-46
2022/05/25 13:24:20;;;;;;;1.73;0.40;;;22.20;36.40;;;;;;4922982;29;20211;-46
2022/05/25 13:27:06;;;;;;;2.05;0.50;;;22.20;36.30;;;;;;4931028;29;20065;-45
2022/05/25 13:29:47;;;;;;;1.25;0.57;;;22.20;36.10;;;;;;4944201;28;20047;-53
2022/05/25 13:32:33;;;;;;;2.40;0.80;;;22.30;36.40;;;;;;4946969;28;20065;-46
2022/05/25 13:35:11;;;;;;;2.45;0.82;;;22.30;36.60;;;;;;4945210;28;20066;-46
2022/05/25 13:37:39;;;;;;;0.82;0.45;;;22.40;36.70;;;;;;4939968;28;20487;-47
2022/05/25 13:40:10;;;;;;;3.85;1.00;;;22.40;37.00;;;;;;4942343;28;20051;-46
2022/05/25 13:42:39;;;;;;;1.25;0.40;;;22.50;36.60;;;;;;4943685;28;20071;-49